createdAt,value
2017-12-06T00:02:16.271Z,29.77
2017-12-06T00:05:21.013Z,28.10
2017-12-06T00:08:26.534Z,30.10
2017-12-06T00:11:31.490Z,26.23
2017-12-06T00:14:44.556Z,21.90
2017-12-06T00:17:49.535Z,22.20
2017-12-06T00:21:05.848Z,22.37
2017-12-06T00:24:11.508Z,27.30
2017-12-06T00:27:16.738Z,22.17
2017-12-06T00:30:22.224Z,28.17
2017-12-06T00:33:28.524Z,25.10
2017-12-06T00:36:33.544Z,25.07
2017-12-06T00:39:42.839Z,29.63
2017-12-06T00:42:53.124Z,24.60
2017-12-06T00:46:04.264Z,24.73
2017-12-06T00:49:09.268Z,23.47
2017-12-06T00:52:14.712Z,21.37
2017-12-06T00:55:20.369Z,25.83
2017-12-06T00:58:25.775Z,24.87
2017-12-06T01:01:30.727Z,26.87
2017-12-06T01:04:37.856Z,23.27
2017-12-06T01:07:49.219Z,23.33
2017-12-06T01:10:54.635Z,21.43
2017-12-06T01:14:00.435Z,22.33
2017-12-06T01:17:06.126Z,27.73
2017-12-06T01:20:11.151Z,27.73
2017-12-06T01:23:16.683Z,24.17
2017-12-06T01:26:21.792Z,30.60
2017-12-06T01:29:28.200Z,25.70
2017-12-06T01:32:37.263Z,28.10
2017-12-06T01:35:48.912Z,24.07
2017-12-06T01:38:54.818Z,25.07
2017-12-06T01:42:06.011Z,24.37
2017-12-06T01:45:11.459Z,27.10
2017-12-06T01:48:16.516Z,23.80
2017-12-06T01:51:22.303Z,26.73
2017-12-06T01:54:27.972Z,26.23
2017-12-06T01:57:33.118Z,29.77
2017-12-06T02:00:39.268Z,26.93
2017-12-06T02:03:44.010Z,28.53
2017-12-06T02:06:49.004Z,29.83
2017-12-06T02:09:54.387Z,27.77
2017-12-06T02:13:00.132Z,25.20
2017-12-06T02:16:05.827Z,36.23
2017-12-06T02:19:12.844Z,29.10
2017-12-06T02:22:17.908Z,33.50
2017-12-06T02:25:23.564Z,23.23
2017-12-06T02:28:29.055Z,29.20
2017-12-06T02:31:34.543Z,31.77
2017-12-06T02:34:48.384Z,34.13
2017-12-06T02:37:54.744Z,32.50
2017-12-06T02:41:12.117Z,31.27
2017-12-06T02:44:29.271Z,32.07
2017-12-06T02:47:35.323Z,33.80
2017-12-06T02:50:44.175Z,31.57
2017-12-06T02:53:49.703Z,30.30
2017-12-06T02:56:56.361Z,32.67
2017-12-06T03:00:02.284Z,26.33
2017-12-06T03:03:12.528Z,33.27
2017-12-06T03:06:17.436Z,34.43
2017-12-06T03:09:22.183Z,31.70
2017-12-06T03:12:30.907Z,32.73
2017-12-06T03:15:36.196Z,35.90
2017-12-06T03:18:43.935Z,33.17
2017-12-06T03:21:49.349Z,36.47
2017-12-06T03:25:01.894Z,37.77
2017-12-06T03:28:12.860Z,32.93
2017-12-06T03:31:17.895Z,33.50
2017-12-06T03:34:22.820Z,38.13
2017-12-06T03:37:37.163Z,19.73
2017-12-06T03:40:42.211Z,39.37
2017-12-06T03:43:53.644Z,39.20
2017-12-06T03:47:01.470Z,36.97
2017-12-06T03:50:06.663Z,33.27
2017-12-06T03:53:13.139Z,39.93
2017-12-06T03:56:19.049Z,37.93
2017-12-06T03:59:24.091Z,37.13
2017-12-06T04:02:29.539Z,39.60
2017-12-06T04:05:34.916Z,30.80
2017-12-06T04:08:39.865Z,37.63
2017-12-06T04:11:45.326Z,32.10
2017-12-06T04:14:50.640Z,41.33
2017-12-06T04:17:56.299Z,42.60
2017-12-06T04:21:05.080Z,36.13
2017-12-06T04:24:10.295Z,42.30
2017-12-06T04:27:15.218Z,40.60
2017-12-06T04:30:21.756Z,42.70
2017-12-06T04:33:26.941Z,39.17
2017-12-06T04:36:31.948Z,42.63
2017-12-06T04:39:37.467Z,45.07
2017-12-06T04:42:43.382Z,42.50
2017-12-06T04:45:48.750Z,42.13
2017-12-06T04:48:54.188Z,33.00
2017-12-06T04:51:59.271Z,42.40
2017-12-06T04:55:04.504Z,38.70
2017-12-06T04:58:09.975Z,43.30
2017-12-06T05:01:14.822Z,44.43
2017-12-06T05:04:25.856Z,37.83
2017-12-06T05:07:33.740Z,45.53
2017-12-06T05:10:41.164Z,43.73
2017-12-06T05:13:47.948Z,44.57
2017-12-06T05:16:54.158Z,44.70
2017-12-06T05:20:03.953Z,44.63
2017-12-06T05:23:11.462Z,42.73
2017-12-06T05:26:23.777Z,39.27
2017-12-06T05:29:29.350Z,49.27
2017-12-06T05:32:34.650Z,48.93
2017-12-06T05:35:41.010Z,43.67
2017-12-06T05:38:47.208Z,45.40
2017-12-06T05:41:55.331Z,37.30
2017-12-06T05:45:00.116Z,40.77
2017-12-06T05:48:09.504Z,36.87
2017-12-06T05:51:18.271Z,37.27
2017-12-06T05:54:25.813Z,41.30
2017-12-06T05:57:31.956Z,38.90
2017-12-06T06:00:38.676Z,46.23
2017-12-06T06:03:51.924Z,41.40
2017-12-06T06:06:58.767Z,38.77
2017-12-06T06:10:04.008Z,36.87
2017-12-06T06:13:09.219Z,43.70
2017-12-06T06:16:15.224Z,43.17
2017-12-06T06:19:20.058Z,42.63
2017-12-06T06:22:26.528Z,39.47
2017-12-06T06:25:32.096Z,37.17
2017-12-06T06:28:37.500Z,34.13
2017-12-06T06:31:43.506Z,39.73
2017-12-06T06:34:48.939Z,36.17
2017-12-06T06:37:54.258Z,40.20
2017-12-06T06:40:59.628Z,41.30
2017-12-06T06:44:05.097Z,34.53
2017-12-06T06:47:10.212Z,38.83
2017-12-06T06:50:17.014Z,34.70
2017-12-06T06:53:22.401Z,41.10
2017-12-06T06:56:27.848Z,38.20
2017-12-06T06:59:34.064Z,37.63
2017-12-06T07:02:39.683Z,37.50
2017-12-06T07:05:45.272Z,39.60
2017-12-06T07:08:50.926Z,33.50
2017-12-06T07:11:56.880Z,37.27
2017-12-06T07:15:02.388Z,32.53
2017-12-06T07:18:09.124Z,36.43
2017-12-06T07:21:14.128Z,38.50
2017-12-06T07:24:19.798Z,34.93
2017-12-06T07:27:32.287Z,34.53
2017-12-06T07:30:37.368Z,32.00
2017-12-06T07:33:43.817Z,37.63
2017-12-06T07:36:51.363Z,35.27
2017-12-06T07:39:56.520Z,36.77
2017-12-06T07:43:13.304Z,31.23
2017-12-06T07:46:30.734Z,35.97
2017-12-06T07:49:36.000Z,36.93
2017-12-06T07:52:43.375Z,39.50
2017-12-06T07:55:51.896Z,32.60
2017-12-06T07:58:58.484Z,36.00
2017-12-06T08:02:03.721Z,33.90
2017-12-06T08:05:09.004Z,38.47
2017-12-06T08:08:14.348Z,34.00
2017-12-06T08:11:19.304Z,35.30
2017-12-06T08:14:24.973Z,38.93
2017-12-06T08:17:30.647Z,34.13
2017-12-06T08:20:35.617Z,32.03
2017-12-06T08:23:42.211Z,32.30
2017-12-06T08:26:47.628Z,34.37
2017-12-06T08:29:52.736Z,32.07
2017-12-06T08:32:58.706Z,34.90
2017-12-06T08:36:04.272Z,30.50
2017-12-06T08:39:09.808Z,30.93
2017-12-06T08:42:15.901Z,36.63
2017-12-06T08:45:21.176Z,33.13
2017-12-06T08:48:26.163Z,33.40
2017-12-06T08:51:31.198Z,30.77
2017-12-06T08:54:37.000Z,32.60
2017-12-06T08:57:42.688Z,30.97
2017-12-06T09:00:49.300Z,32.77
2017-12-06T09:04:00.704Z,35.57
2017-12-06T09:07:06.267Z,30.43
2017-12-06T09:10:11.296Z,33.10
2017-12-06T09:13:16.567Z,37.17
2017-12-06T09:16:21.782Z,33.70
2017-12-06T09:19:26.896Z,34.83
2017-12-06T09:22:32.042Z,31.10
2017-12-06T09:25:37.688Z,34.07
2017-12-06T09:28:42.476Z,38.30
2017-12-06T09:31:48.139Z,31.30
2017-12-06T09:34:52.985Z,38.30
2017-12-06T09:37:58.400Z,33.47
2017-12-06T09:41:03.816Z,30.53
2017-12-06T09:44:09.080Z,31.57
2017-12-06T09:47:13.936Z,36.83
2017-12-06T09:50:18.741Z,34.10
2017-12-06T09:53:23.888Z,33.57
2017-12-06T09:56:28.616Z,29.13
2017-12-06T09:59:33.484Z,28.00
2017-12-06T10:02:38.326Z,30.10
2017-12-06T10:05:43.104Z,34.07
2017-12-06T10:08:48.668Z,26.50
2017-12-06T10:11:54.429Z,30.57
2017-12-06T10:14:59.691Z,33.50
2017-12-06T10:18:05.486Z,31.30
2017-12-06T10:21:10.805Z,32.47
2017-12-06T10:24:16.294Z,31.63
2017-12-06T10:27:22.271Z,28.97
2017-12-06T10:30:27.355Z,33.33
2017-12-06T10:33:32.444Z,29.50
2017-12-06T10:36:38.058Z,32.87
2017-12-06T10:39:43.197Z,28.80
2017-12-06T10:42:48.268Z,27.50
2017-12-06T10:45:54.420Z,29.67
2017-12-06T10:49:00.937Z,36.30
2017-12-06T10:52:06.411Z,35.87
2017-12-06T10:55:12.108Z,31.87
2017-12-06T10:58:17.615Z,28.53
2017-12-06T11:01:22.771Z,27.30
2017-12-06T11:04:28.056Z,29.73
2017-12-06T11:07:42.464Z,28.07
2017-12-06T11:10:51.301Z,30.77
2017-12-06T11:13:57.696Z,32.87
2017-12-06T11:17:02.572Z,29.03
2017-12-06T11:20:08.020Z,26.10
2017-12-06T11:23:13.119Z,28.53
2017-12-06T11:26:18.391Z,34.03
2017-12-06T11:29:24.761Z,29.13
2017-12-06T11:32:31.011Z,29.97
2017-12-06T11:35:36.183Z,28.37
2017-12-06T11:38:41.253Z,29.03
2017-12-06T11:41:46.929Z,26.03
2017-12-06T11:44:52.010Z,25.70
2017-12-06T11:47:57.056Z,27.93
2017-12-06T11:51:03.705Z,28.00
2017-12-06T11:54:10.828Z,30.00
2017-12-06T11:57:16.584Z,28.20
2017-12-06T12:00:22.204Z,27.60
2017-12-06T12:03:27.183Z,31.20
2017-12-06T12:06:32.800Z,32.80
2017-12-06T12:09:38.437Z,26.87
2017-12-06T12:12:44.097Z,31.50
2017-12-06T12:15:50.197Z,31.50
2017-12-06T12:18:55.462Z,27.13
2017-12-06T12:22:03.664Z,27.57
2017-12-06T12:25:09.686Z,28.40
2017-12-06T12:28:15.328Z,28.87
2017-12-06T12:31:20.740Z,29.60
2017-12-06T12:34:26.888Z,30.30
2017-12-06T12:37:35.631Z,28.00
2017-12-06T12:40:43.151Z,28.40
2017-12-06T12:43:48.958Z,25.10
2017-12-06T12:46:55.376Z,27.20
2017-12-06T12:50:03.413Z,27.50
2017-12-06T12:53:08.175Z,24.63
2017-12-06T12:56:14.344Z,28.83
2017-12-06T12:59:20.421Z,26.07
2017-12-06T13:02:25.959Z,30.67
2017-12-06T13:05:34.264Z,26.50
2017-12-06T13:08:39.673Z,23.03
2017-12-06T13:11:52.651Z,24.07
2017-12-06T13:15:01.475Z,28.17
2017-12-06T13:18:06.387Z,26.13
2017-12-06T13:21:14.887Z,27.63
2017-12-06T13:24:20.771Z,27.93
2017-12-06T13:27:32.218Z,28.17
2017-12-06T13:30:38.263Z,31.97
2017-12-06T13:33:45.852Z,26.57
2017-12-06T13:36:52.548Z,27.90
2017-12-06T13:39:59.130Z,29.17
2017-12-06T13:43:05.775Z,30.27
2017-12-06T13:46:10.916Z,30.07
2017-12-06T13:49:15.937Z,26.80
2017-12-06T13:52:21.437Z,30.40
2017-12-06T13:55:26.757Z,30.27
2017-12-06T13:58:31.835Z,28.10
2017-12-06T14:01:36.841Z,27.17
2017-12-06T14:04:44.121Z,30.43
2017-12-06T14:07:50.842Z,29.87
2017-12-06T14:10:55.928Z,37.77
2017-12-06T14:14:02.530Z,32.77
2017-12-06T14:17:08.165Z,31.13
2017-12-06T14:20:15.024Z,27.57
2017-12-06T14:23:20.368Z,27.00
2017-12-06T14:26:25.705Z,31.00
2017-12-06T14:29:31.880Z,34.77
2017-12-06T14:32:38.716Z,26.07
2017-12-06T14:35:43.936Z,31.67
2017-12-06T14:38:49.328Z,26.30
2017-12-06T14:41:55.044Z,26.60
2017-12-06T14:45:00.351Z,28.80
2017-12-06T14:48:06.928Z,24.67
2017-12-06T14:51:12.484Z,33.13
2017-12-06T14:54:18.334Z,33.13
2017-12-06T14:57:23.994Z,31.10
2017-12-06T15:00:29.503Z,30.80
2017-12-06T15:03:34.527Z,32.30
2017-12-06T15:06:40.828Z,30.57
2017-12-06T15:09:46.262Z,30.70
2017-12-06T15:12:51.980Z,31.93
2017-12-06T15:15:57.056Z,31.90
2017-12-06T15:19:01.854Z,29.07
2017-12-06T15:22:07.350Z,29.43
2017-12-06T15:25:13.015Z,34.20
2017-12-06T15:28:18.456Z,33.70
2017-12-06T15:31:23.997Z,31.20
2017-12-06T15:34:30.106Z,30.73
2017-12-06T15:37:35.444Z,32.23
2017-12-06T15:40:41.182Z,30.77
2017-12-06T15:43:47.028Z,29.57
2017-12-06T15:46:51.997Z,31.20
2017-12-06T15:49:56.851Z,34.53
2017-12-06T15:53:02.964Z,31.93
2017-12-06T15:56:08.477Z,29.67
2017-12-06T15:59:14.259Z,30.40
2017-12-06T16:02:19.088Z,30.23
2017-12-06T16:05:24.086Z,32.00
2017-12-06T16:08:30.207Z,33.60
2017-12-06T16:11:35.773Z,30.50
2017-12-06T16:14:41.351Z,38.50
2017-12-06T16:17:46.926Z,35.73
2017-12-06T16:20:52.776Z,35.20
2017-12-06T16:23:58.148Z,33.07
2017-12-06T16:27:03.880Z,37.70
2017-12-06T16:30:09.420Z,30.80
2017-12-06T16:33:14.772Z,34.03
2017-12-06T16:36:31.631Z,31.00
2017-12-06T16:39:37.040Z,28.87
2017-12-06T16:42:42.414Z,35.83
2017-12-06T16:45:47.535Z,30.20
2017-12-06T16:48:53.222Z,29.27
2017-12-06T16:51:58.384Z,27.60
2017-12-06T16:55:03.901Z,31.57
2017-12-06T16:58:09.086Z,31.30
2017-12-06T17:01:15.242Z,29.50
2017-12-06T17:04:20.936Z,33.67
2017-12-06T17:07:27.144Z,35.30
2017-12-06T17:10:32.585Z,33.00
2017-12-06T17:13:37.499Z,36.33
2017-12-06T17:16:43.180Z,43.17
2017-12-06T17:19:49.408Z,35.43
2017-12-06T17:22:55.644Z,33.03
2017-12-06T17:26:01.516Z,41.03
2017-12-06T17:29:19.761Z,37.37
2017-12-06T17:32:26.199Z,37.80
2017-12-06T17:35:31.539Z,38.07
2017-12-06T17:38:37.331Z,35.73
2017-12-06T17:41:42.315Z,33.77
2017-12-06T17:44:49.596Z,35.73
2017-12-06T17:47:55.248Z,36.83
2017-12-06T17:51:00.815Z,36.53
2017-12-06T17:54:06.011Z,33.83
2017-12-06T17:57:11.409Z,41.93
2017-12-06T18:00:16.573Z,34.53
2017-12-06T18:03:21.427Z,40.23
2017-12-06T18:06:27.967Z,43.97
2017-12-06T18:09:32.943Z,34.30
2017-12-06T18:12:38.438Z,37.50
2017-12-06T18:15:43.333Z,40.90
2017-12-06T18:18:48.746Z,38.13
2017-12-06T18:21:53.788Z,36.20
2017-12-06T18:24:59.565Z,39.07
2017-12-06T18:28:04.756Z,33.00
2017-12-06T18:31:10.400Z,39.77
2017-12-06T18:34:15.586Z,40.90
2017-12-06T18:37:20.668Z,33.63
2017-12-06T18:40:25.972Z,35.00
2017-12-06T18:43:47.153Z,38.27
2017-12-06T18:46:59.176Z,37.30
2017-12-06T18:50:04.116Z,38.73
2017-12-06T18:53:10.024Z,36.57
2017-12-06T18:56:20.284Z,35.53
2017-12-06T18:59:29.359Z,42.37
2017-12-06T19:02:35.240Z,37.17
2017-12-06T19:05:40.308Z,33.73
2017-12-06T19:09:07.122Z,35.10
2017-12-06T19:12:12.427Z,36.03
2017-12-06T19:15:17.145Z,36.80
2017-12-06T19:18:22.645Z,38.03
2017-12-06T19:21:27.835Z,36.73
2017-12-06T19:24:34.327Z,38.33
2017-12-06T19:27:40.037Z,39.80
2017-12-06T19:30:45.504Z,40.20
2017-12-06T19:33:50.840Z,36.93
2017-12-06T19:36:56.114Z,32.50
2017-12-06T19:40:02.705Z,31.03
2017-12-06T19:43:09.181Z,38.93
2017-12-06T19:46:14.643Z,38.03
2017-12-06T19:49:20.417Z,31.20
2017-12-06T19:52:25.667Z,34.53
2017-12-06T19:55:32.100Z,33.27
2017-12-06T19:58:37.230Z,37.27
2017-12-06T20:01:42.959Z,33.83
2017-12-06T20:04:47.777Z,31.40
2017-12-06T20:07:55.224Z,33.20
2017-12-06T20:11:00.909Z,29.27
2017-12-06T20:14:06.302Z,35.93
2017-12-06T20:17:11.885Z,35.80
2017-12-06T20:20:16.722Z,37.20
2017-12-06T20:23:22.131Z,33.73
2017-12-06T20:26:27.472Z,32.33
2017-12-06T20:29:32.637Z,30.20
2017-12-06T20:32:41.239Z,34.00
2017-12-06T20:35:46.448Z,30.23
2017-12-06T20:38:51.757Z,32.07
2017-12-06T20:41:58.124Z,36.70
2017-12-06T20:45:03.928Z,33.70
2017-12-06T20:48:08.768Z,30.07
2017-12-06T20:51:16.702Z,34.07
2017-12-06T20:54:22.864Z,32.90
2017-12-06T20:57:28.735Z,29.40
2017-12-06T21:00:33.632Z,33.13
2017-12-06T21:03:38.480Z,28.37
2017-12-06T21:06:43.901Z,37.60
2017-12-06T21:09:50.324Z,31.10
2017-12-06T21:12:57.840Z,30.50
2017-12-06T21:16:08.160Z,32.33
2017-12-06T21:19:14.790Z,32.93
2017-12-06T21:22:26.063Z,29.33
2017-12-06T21:25:31.819Z,30.20
2017-12-06T21:28:37.373Z,32.63
2017-12-06T21:31:42.220Z,30.13
2017-12-06T21:34:48.741Z,28.87
2017-12-06T21:37:54.224Z,30.30
2017-12-06T21:40:59.688Z,30.97
2017-12-06T21:44:05.173Z,27.07
2017-12-06T21:47:10.111Z,32.80
2017-12-06T21:50:15.331Z,33.27
2017-12-06T21:53:21.068Z,33.57
2017-12-06T21:56:26.580Z,33.73
2017-12-06T21:59:33.198Z,31.43
2017-12-06T22:02:37.938Z,32.97
2017-12-06T22:05:43.122Z,33.80
2017-12-06T22:08:49.013Z,28.87
2017-12-06T22:11:53.792Z,34.70
2017-12-06T22:14:58.708Z,31.33
2017-12-06T22:18:03.828Z,31.80
2017-12-06T22:21:09.680Z,38.20
2017-12-06T22:24:15.146Z,38.13
2017-12-06T22:27:21.068Z,29.33
2017-12-06T22:30:25.859Z,33.30
2017-12-06T22:33:31.332Z,35.87
2017-12-06T22:36:36.323Z,34.33
2017-12-06T22:39:41.404Z,31.23
2017-12-06T22:42:46.980Z,38.93
2017-12-06T22:45:53.308Z,35.00
2017-12-06T22:48:58.344Z,37.17
2017-12-06T22:52:04.108Z,35.77
2017-12-06T22:55:09.761Z,38.83
2017-12-06T22:58:15.346Z,39.80
2017-12-06T23:01:20.246Z,40.90
2017-12-06T23:04:25.896Z,35.87
2017-12-06T23:07:31.429Z,39.07
2017-12-06T23:10:37.988Z,35.20
2017-12-06T23:13:43.287Z,37.20
2017-12-06T23:16:49.849Z,39.27
2017-12-06T23:19:55.078Z,37.80
2017-12-06T23:23:00.972Z,42.60
2017-12-06T23:26:06.652Z,42.07
2017-12-06T23:29:12.232Z,39.40
2017-12-06T23:32:17.386Z,40.03
2017-12-06T23:35:22.702Z,36.33
2017-12-06T23:38:28.512Z,39.07
2017-12-06T23:41:33.428Z,44.00
2017-12-06T23:44:39.512Z,44.20
2017-12-06T23:47:44.386Z,46.30
2017-12-06T23:50:49.478Z,44.30
2017-12-06T23:53:55.160Z,47.77
2017-12-06T23:57:00.549Z,49.27
